sensor_id;sensor_type;location;lat;lon;timestamp;P1;durP1;ratioP1;P2;durP2;ratioP2
10216;SDS011;5152;59.674;16.838;2023-06-01T00:00:58;3.07;;;0.40;;
10216;SDS011;5152;59.674;16.838;2023-06-01T00:03:26;0.80;;;0.53;;
10216;SDS011;5152;59.674;16.838;2023-06-01T00:05:54;0.30;;;0.30;;
10216;SDS011;5152;59.674;16.838;2023-06-01T00:08:23;0.93;;;0.40;;
10216;SDS011;5152;59.674;16.838;2023-06-01T00:10:50;0.60;;;0.60;;
10216;SDS011;5152;59.674;16.838;2023-06-01T00:13:18;0.70;;;0.43;;
10216;SDS011;5152;59.674;16.838;2023-06-01T00:15:45;3.03;;;0.50;;
10216;SDS011;5152;59.674;16.838;2023-06-01T00:18:11;1.20;;;0.23;;
10216;SDS011;5152;59.674;16.838;2023-06-01T00:20:40;1.97;;;0.50;;
10216;SDS011;5152;59.674;16.838;2023-06-01T00:23:08;0.60;;;0.53;;
10216;SDS011;5152;59.674;16.838;2023-06-01T00:25:36;1.37;;;0.30;;
10216;SDS011;5152;59.674;16.838;2023-06-01T00:28:03;2.30;;;0.30;;
10216;SDS011;5152;59.674;16.838;2023-06-01T00:30:30;0.73;;;0.50;;
10216;SDS011;5152;59.674;16.838;2023-06-01T00:32:57;2.20;;;0.40;;
10216;SDS011;5152;59.674;16.838;2023-06-01T00:35:24;3.30;;;0.50;;
10216;SDS011;5152;59.674;16.838;2023-06-01T00:37:51;3.43;;;0.70;;
10216;SDS011;5152;59.674;16.838;2023-06-01T00:40:17;1.80;;;0.50;;
10216;SDS011;5152;59.674;16.838;2023-06-01T00:42:46;4.10;;;0.50;;
10216;SDS011;5152;59.674;16.838;2023-06-01T00:45:13;1.90;;;0.50;;
10216;SDS011;5152;59.674;16.838;2023-06-01T00:47:40;1.10;;;0.53;;
10216;SDS011;5152;59.674;16.838;2023-06-01T00:50:10;0.40;;;0.40;;
10216;SDS011;5152;59.674;16.838;2023-06-01T00:52:38;3.80;;;0.47;;
10216;SDS011;5152;59.674;16.838;2023-06-01T00:55:05;2.60;;;0.73;;
10216;SDS011;5152;59.674;16.838;2023-06-01T00:57:32;1.10;;;0.70;;
10216;SDS011;5152;59.674;16.838;2023-06-01T01:00:02;0.33;;;0.30;;
10216;SDS011;5152;59.674;16.838;2023-06-01T01:02:35;0.97;;;0.40;;
10216;SDS011;5152;59.674;16.838;2023-06-01T01:05:04;0.67;;;0.30;;
10216;SDS011;5152;59.674;16.838;2023-06-01T01:07:35;0.20;;;0.20;;
10216;SDS011;5152;59.674;16.838;2023-06-01T01:10:08;1.93;;;0.53;;
10216;SDS011;5152;59.674;16.838;2023-06-01T01:12:40;1.00;;;0.50;;
10216;SDS011;5152;59.674;16.838;2023-06-01T01:15:19;2.10;;;0.67;;
10216;SDS011;5152;59.674;16.838;2023-06-01T01:17:49;3.30;;;0.40;;
10216;SDS011;5152;59.674;16.838;2023-06-01T01:20:18;0.30;;;0.30;;
10216;SDS011;5152;59.674;16.838;2023-06-01T01:22:59;4.40;;;0.50;;
10216;SDS011;5152;59.674;16.838;2023-06-01T01:25:46;1.20;;;0.50;;
10216;SDS011;5152;59.674;16.838;2023-06-01T01:28:32;2.80;;;0.30;;
10216;SDS011;5152;59.674;16.838;2023-06-01T01:30:59;2.33;;;0.50;;
10216;SDS011;5152;59.674;16.838;2023-06-01T01:33:28;1.17;;;0.57;;
10216;SDS011;5152;59.674;16.838;2023-06-01T01:35:55;0.50;;;0.30;;
10216;SDS011;5152;59.674;16.838;2023-06-01T01:38:22;1.37;;;0.70;;
10216;SDS011;5152;59.674;16.838;2023-06-01T01:40:49;1.03;;;0.50;;
10216;SDS011;5152;59.674;16.838;2023-06-01T01:43:17;1.77;;;0.40;;
10216;SDS011;5152;59.674;16.838;2023-06-01T01:45:46;1.90;;;0.40;;
10216;SDS011;5152;59.674;16.838;2023-06-01T01:48:26;0.53;;;0.30;;
10216;SDS011;5152;59.674;16.838;2023-06-01T01:50:58;0.40;;;0.40;;
10216;SDS011;5152;59.674;16.838;2023-06-01T01:53:28;0.60;;;0.50;;
10216;SDS011;5152;59.674;16.838;2023-06-01T01:55:56;2.20;;;0.40;;
10216;SDS011;5152;59.674;16.838;2023-06-01T01:58:23;0.50;;;0.30;;
10216;SDS011;5152;59.674;16.838;2023-06-01T02:00:53;1.53;;;0.47;;
10216;SDS011;5152;59.674;16.838;2023-06-01T02:03:20;0.83;;;0.67;;
10216;SDS011;5152;59.674;16.838;2023-06-01T02:05:47;3.13;;;0.60;;
10216;SDS011;5152;59.674;16.838;2023-06-01T02:08:14;2.17;;;0.43;;
10216;SDS011;5152;59.674;16.838;2023-06-01T02:10:40;0.57;;;0.50;;
10216;SDS011;5152;59.674;16.838;2023-06-01T02:13:07;0.83;;;0.33;;
10216;SDS011;5152;59.674;16.838;2023-06-01T02:15:34;0.97;;;0.47;;
10216;SDS011;5152;59.674;16.838;2023-06-01T02:18:03;0.50;;;0.43;;
10216;SDS011;5152;59.674;16.838;2023-06-01T02:20:30;0.20;;;0.20;;
10216;SDS011;5152;59.674;16.838;2023-06-01T02:22:57;0.73;;;0.53;;
10216;SDS011;5152;59.674;16.838;2023-06-01T02:25:23;0.80;;;0.40;;
10216;SDS011;5152;59.674;16.838;2023-06-01T02:27:50;0.33;;;0.27;;
10216;SDS011;5152;59.674;16.838;2023-06-01T02:30:17;0.40;;;0.20;;
10216;SDS011;5152;59.674;16.838;2023-06-01T02:32:44;1.50;;;0.50;;
10216;SDS011;5152;59.674;16.838;2023-06-01T02:35:14;0.83;;;0.40;;
10216;SDS011;5152;59.674;16.838;2023-06-01T02:37:41;0.70;;;0.50;;
10216;SDS011;5152;59.674;16.838;2023-06-01T02:40:08;0.77;;;0.50;;
10216;SDS011;5152;59.674;16.838;2023-06-01T02:42:36;0.60;;;0.47;;
10216;SDS011;5152;59.674;16.838;2023-06-01T02:45:04;0.50;;;0.47;;
10216;SDS011;5152;59.674;16.838;2023-06-01T02:47:32;0.47;;;0.30;;
10216;SDS011;5152;59.674;16.838;2023-06-01T02:49:59;0.57;;;0.50;;
10216;SDS011;5152;59.674;16.838;2023-06-01T02:52:27;0.67;;;0.67;;
10216;SDS011;5152;59.674;16.838;2023-06-01T02:54:54;0.53;;;0.40;;
10216;SDS011;5152;59.674;16.838;2023-06-01T02:57:21;0.40;;;0.40;;
10216;SDS011;5152;59.674;16.838;2023-06-01T02:59:47;1.10;;;0.30;;
10216;SDS011;5152;59.674;16.838;2023-06-01T03:02:14;0.83;;;0.43;;
10216;SDS011;5152;59.674;16.838;2023-06-01T03:04:41;0.50;;;0.20;;
10216;SDS011;5152;59.674;16.838;2023-06-01T03:07:08;0.53;;;0.43;;
10216;SDS011;5152;59.674;16.838;2023-06-01T03:09:36;0.50;;;0.50;;
10216;SDS011;5152;59.674;16.838;2023-06-01T03:12:03;0.37;;;0.37;;
10216;SDS011;5152;59.674;16.838;2023-06-01T03:14:31;0.70;;;0.43;;
10216;SDS011;5152;59.674;16.838;2023-06-01T03:16:58;0.80;;;0.60;;
10216;SDS011;5152;59.674;16.838;2023-06-01T03:19:25;0.40;;;0.37;;
10216;SDS011;5152;59.674;16.838;2023-06-01T03:21:52;2.30;;;0.50;;
10216;SDS011;5152;59.674;16.838;2023-06-01T03:24:19;0.60;;;0.50;;
10216;SDS011;5152;59.674;16.838;2023-06-01T03:26:47;0.50;;;0.40;;
10216;SDS011;5152;59.674;16.838;2023-06-01T03:29:15;1.03;;;0.57;;
10216;SDS011;5152;59.674;16.838;2023-06-01T03:31:41;0.60;;;0.40;;
10216;SDS011;5152;59.674;16.838;2023-06-01T03:34:08;0.43;;;0.30;;
10216;SDS011;5152;59.674;16.838;2023-06-01T03:36:35;0.77;;;0.47;;
10216;SDS011;5152;59.674;16.838;2023-06-01T03:39:03;0.47;;;0.47;;
10216;SDS011;5152;59.674;16.838;2023-06-01T03:41:33;0.87;;;0.53;;
10216;SDS011;5152;59.674;16.838;2023-06-01T03:44:01;0.40;;;0.40;;
10216;SDS011;5152;59.674;16.838;2023-06-01T03:46:28;1.23;;;0.60;;
10216;SDS011;5152;59.674;16.838;2023-06-01T03:48:55;0.67;;;0.50;;
10216;SDS011;5152;59.674;16.838;2023-06-01T03:51:22;0.47;;;0.43;;
10216;SDS011;5152;59.674;16.838;2023-06-01T03:53:49;0.50;;;0.37;;
10216;SDS011;5152;59.674;16.838;2023-06-01T03:56:16;0.50;;;0.40;;
10216;SDS011;5152;59.674;16.838;2023-06-01T03:58:42;0.50;;;0.40;;
10216;SDS011;5152;59.674;16.838;2023-06-01T04:01:11;0.30;;;0.30;;
10216;SDS011;5152;59.674;16.838;2023-06-01T04:03:42;2.23;;;0.53;;
10216;SDS011;5152;59.674;16.838;2023-06-01T04:06:10;0.70;;;0.40;;
10216;SDS011;5152;59.674;16.838;2023-06-01T04:08:39;0.83;;;0.40;;
10216;SDS011;5152;59.674;16.838;2023-06-01T04:11:13;0.23;;;0.20;;
10216;SDS011;5152;59.674;16.838;2023-06-01T04:13:40;1.17;;;0.70;;
10216;SDS011;5152;59.674;16.838;2023-06-01T04:16:07;2.73;;;0.43;;
10216;SDS011;5152;59.674;16.838;2023-06-01T04:18:35;1.10;;;0.77;;
10216;SDS011;5152;59.674;16.838;2023-06-01T04:21:02;0.40;;;0.40;;
10216;SDS011;5152;59.674;16.838;2023-06-01T04:23:29;0.57;;;0.30;;
10216;SDS011;5152;59.674;16.838;2023-06-01T04:25:56;0.30;;;0.30;;
10216;SDS011;5152;59.674;16.838;2023-06-01T04:28:25;1.23;;;0.47;;
10216;SDS011;5152;59.674;16.838;2023-06-01T04:30:52;0.83;;;0.70;;
10216;SDS011;5152;59.674;16.838;2023-06-01T04:33:19;0.87;;;0.50;;
10216;SDS011;5152;59.674;16.838;2023-06-01T04:35:48;0.33;;;0.30;;
10216;SDS011;5152;59.674;16.838;2023-06-01T04:38:18;2.47;;;0.47;;
10216;SDS011;5152;59.674;16.838;2023-06-01T04:40:45;1.70;;;0.60;;
10216;SDS011;5152;59.674;16.838;2023-06-01T04:43:11;1.47;;;0.50;;
10216;SDS011;5152;59.674;16.838;2023-06-01T04:45:44;1.13;;;0.60;;
10216;SDS011;5152;59.674;16.838;2023-06-01T04:48:11;0.50;;;0.40;;
10216;SDS011;5152;59.674;16.838;2023-06-01T04:50:39;1.13;;;0.60;;
10216;SDS011;5152;59.674;16.838;2023-06-01T04:53:08;0.53;;;0.43;;
10216;SDS011;5152;59.674;16.838;2023-06-01T04:55:34;4.27;;;0.40;;
10216;SDS011;5152;59.674;16.838;2023-06-01T04:58:01;2.33;;;0.40;;
10216;SDS011;5152;59.674;16.838;2023-06-01T05:00:29;3.10;;;0.77;;
10216;SDS011;5152;59.674;16.838;2023-06-01T05:02:55;1.00;;;0.70;;
10216;SDS011;5152;59.674;16.838;2023-06-01T05:05:22;3.13;;;0.60;;
10216;SDS011;5152;59.674;16.838;2023-06-01T05:07:49;1.00;;;0.70;;
10216;SDS011;5152;59.674;16.838;2023-06-01T05:10:17;1.40;;;0.60;;
10216;SDS011;5152;59.674;16.838;2023-06-01T05:12:44;1.00;;;0.70;;
10216;SDS011;5152;59.674;16.838;2023-06-01T05:15:11;5.00;;;0.80;;
10216;SDS011;5152;59.674;16.838;2023-06-01T05:17:38;0.40;;;0.40;;
10216;SDS011;5152;59.674;16.838;2023-06-01T05:20:06;4.53;;;1.00;;
10216;SDS011;5152;59.674;16.838;2023-06-01T05:22:36;1.27;;;0.43;;
10216;SDS011;5152;59.674;16.838;2023-06-01T05:25:03;2.33;;;1.13;;
10216;SDS011;5152;59.674;16.838;2023-06-01T05:27:32;6.27;;;1.07;;
10216;SDS011;5152;59.674;16.838;2023-06-01T05:30:00;0.40;;;0.40;;
10216;SDS011;5152;59.674;16.838;2023-06-01T05:32:27;3.17;;;0.97;;
10216;SDS011;5152;59.674;16.838;2023-06-01T05:34:54;1.07;;;0.97;;
10216;SDS011;5152;59.674;16.838;2023-06-01T05:37:21;2.37;;;0.67;;
10216;SDS011;5152;59.674;16.838;2023-06-01T05:39:48;2.07;;;0.90;;
10216;SDS011;5152;59.674;16.838;2023-06-01T05:42:15;2.40;;;0.90;;
10216;SDS011;5152;59.674;16.838;2023-06-01T05:44:43;0.60;;;0.60;;
10216;SDS011;5152;59.674;16.838;2023-06-01T05:47:10;2.37;;;0.90;;
10216;SDS011;5152;59.674;16.838;2023-06-01T05:49:37;1.17;;;0.90;;
10216;SDS011;5152;59.674;16.838;2023-06-01T05:52:04;0.40;;;0.40;;
10216;SDS011;5152;59.674;16.838;2023-06-01T05:54:31;3.33;;;0.90;;
10216;SDS011;5152;59.674;16.838;2023-06-01T05:56:58;1.47;;;0.60;;
10216;SDS011;5152;59.674;16.838;2023-06-01T05:59:25;7.93;;;0.90;;
10216;SDS011;5152;59.674;16.838;2023-06-01T06:01:53;2.80;;;0.60;;
10216;SDS011;5152;59.674;16.838;2023-06-01T06:04:20;2.10;;;0.63;;
10216;SDS011;5152;59.674;16.838;2023-06-01T06:06:47;3.53;;;0.87;;
10216;SDS011;5152;59.674;16.838;2023-06-01T06:09:13;3.80;;;1.10;;
10216;SDS011;5152;59.674;16.838;2023-06-01T06:11:41;2.13;;;0.77;;
10216;SDS011;5152;59.674;16.838;2023-06-01T06:14:08;3.17;;;0.80;;
10216;SDS011;5152;59.674;16.838;2023-06-01T06:16:36;1.37;;;0.60;;
10216;SDS011;5152;59.674;16.838;2023-06-01T06:19:06;2.93;;;1.07;;
10216;SDS011;5152;59.674;16.838;2023-06-01T06:21:33;1.17;;;0.73;;
10216;SDS011;5152;59.674;16.838;2023-06-01T06:24:00;1.53;;;0.80;;
10216;SDS011;5152;59.674;16.838;2023-06-01T06:26:27;1.20;;;0.70;;
10216;SDS011;5152;59.674;16.838;2023-06-01T06:28:54;1.40;;;0.80;;
10216;SDS011;5152;59.674;16.838;2023-06-01T06:31:21;3.97;;;0.70;;
10216;SDS011;5152;59.674;16.838;2023-06-01T06:33:48;2.13;;;0.90;;
10216;SDS011;5152;59.674;16.838;2023-06-01T06:36:17;2.07;;;0.70;;
10216;SDS011;5152;59.674;16.838;2023-06-01T06:38:45;0.90;;;0.60;;
10216;SDS011;5152;59.674;16.838;2023-06-01T06:41:11;2.93;;;0.73;;
10216;SDS011;5152;59.674;16.838;2023-06-01T06:43:38;1.67;;;0.70;;
10216;SDS011;5152;59.674;16.838;2023-06-01T06:46:05;0.97;;;0.80;;
10216;SDS011;5152;59.674;16.838;2023-06-01T06:48:33;7.80;;;0.80;;
10216;SDS011;5152;59.674;16.838;2023-06-01T06:51:02;0.73;;;0.70;;
10216;SDS011;5152;59.674;16.838;2023-06-01T06:53:30;1.17;;;0.80;;
10216;SDS011;5152;59.674;16.838;2023-06-01T06:55:58;1.60;;;0.80;;
10216;SDS011;5152;59.674;16.838;2023-06-01T06:58:25;4.47;;;0.97;;
10216;SDS011;5152;59.674;16.838;2023-06-01T07:00:52;2.00;;;1.00;;
10216;SDS011;5152;59.674;16.838;2023-06-01T07:03:19;3.43;;;0.97;;
10216;SDS011;5152;59.674;16.838;2023-06-01T07:05:46;2.43;;;0.93;;
10216;SDS011;5152;59.674;16.838;2023-06-01T07:08:13;1.60;;;0.80;;
10216;SDS011;5152;59.674;16.838;2023-06-01T07:10:41;2.10;;;0.80;;
10216;SDS011;5152;59.674;16.838;2023-06-01T07:13:08;1.40;;;0.77;;
10216;SDS011;5152;59.674;16.838;2023-06-01T07:15:35;3.13;;;0.80;;
10216;SDS011;5152;59.674;16.838;2023-06-01T07:18:02;0.90;;;0.80;;
10216;SDS011;5152;59.674;16.838;2023-06-01T07:20:29;2.90;;;0.80;;
10216;SDS011;5152;59.674;16.838;2023-06-01T07:22:56;1.33;;;0.67;;
10216;SDS011;5152;59.674;16.838;2023-06-01T07:25:23;1.07;;;0.77;;
10216;SDS011;5152;59.674;16.838;2023-06-01T07:27:51;1.27;;;0.70;;
10216;SDS011;5152;59.674;16.838;2023-06-01T07:30:21;1.63;;;0.90;;
10216;SDS011;5152;59.674;16.838;2023-06-01T07:32:48;2.87;;;0.90;;
10216;SDS011;5152;59.674;16.838;2023-06-01T07:35:15;4.63;;;0.70;;
10216;SDS011;5152;59.674;16.838;2023-06-01T07:37:42;2.83;;;0.63;;
10216;SDS011;5152;59.674;16.838;2023-06-01T07:40:09;2.60;;;1.10;;
10216;SDS011;5152;59.674;16.838;2023-06-01T07:42:38;3.20;;;0.93;;
10216;SDS011;5152;59.674;16.838;2023-06-01T07:45:06;1.50;;;0.70;;
10216;SDS011;5152;59.674;16.838;2023-06-01T07:47:34;1.80;;;0.90;;
10216;SDS011;5152;59.674;16.838;2023-06-01T07:50:01;3.13;;;0.80;;
10216;SDS011;5152;59.674;16.838;2023-06-01T07:52:28;1.43;;;0.60;;
10216;SDS011;5152;59.674;16.838;2023-06-01T07:54:56;2.53;;;1.07;;
10216;SDS011;5152;59.674;16.838;2023-06-01T07:57:23;1.77;;;0.80;;
10216;SDS011;5152;59.674;16.838;2023-06-01T07:59:50;1.17;;;0.67;;
10216;SDS011;5152;59.674;16.838;2023-06-01T08:02:18;3.50;;;0.73;;
10216;SDS011;5152;59.674;16.838;2023-06-01T08:04:45;2.60;;;0.80;;
10216;SDS011;5152;59.674;16.838;2023-06-01T08:07:13;1.47;;;1.03;;
10216;SDS011;5152;59.674;16.838;2023-06-01T08:09:41;1.70;;;0.87;;
10216;SDS011;5152;59.674;16.838;2023-06-01T08:12:08;3.60;;;0.77;;
10216;SDS011;5152;59.674;16.838;2023-06-01T08:14:36;1.27;;;0.73;;
10216;SDS011;5152;59.674;16.838;2023-06-01T08:17:03;1.50;;;0.80;;
10216;SDS011;5152;59.674;16.838;2023-06-01T08:19:33;2.73;;;1.00;;
10216;SDS011;5152;59.674;16.838;2023-06-01T08:22:00;1.63;;;0.67;;
10216;SDS011;5152;59.674;16.838;2023-06-01T08:24:29;3.27;;;0.80;;
10216;SDS011;5152;59.674;16.838;2023-06-01T08:26:57;1.63;;;0.80;;
10216;SDS011;5152;59.674;16.838;2023-06-01T08:29:24;1.23;;;0.90;;
10216;SDS011;5152;59.674;16.838;2023-06-01T08:31:51;2.33;;;0.73;;
10216;SDS011;5152;59.674;16.838;2023-06-01T08:34:18;3.60;;;0.90;;
10216;SDS011;5152;59.674;16.838;2023-06-01T08:36:47;1.70;;;0.90;;
10216;SDS011;5152;59.674;16.838;2023-06-01T08:39:20;2.07;;;0.87;;
10216;SDS011;5152;59.674;16.838;2023-06-01T08:41:51;0.93;;;0.60;;
10216;SDS011;5152;59.674;16.838;2023-06-01T08:44:23;1.03;;;0.60;;
10216;SDS011;5152;59.674;16.838;2023-06-01T08:46:53;0.77;;;0.73;;
10216;SDS011;5152;59.674;16.838;2023-06-01T08:49:20;5.77;;;0.97;;
10216;SDS011;5152;59.674;16.838;2023-06-01T08:51:49;1.33;;;0.70;;
10216;SDS011;5152;59.674;16.838;2023-06-01T08:54:17;3.30;;;0.90;;
10216;SDS011;5152;59.674;16.838;2023-06-01T08:56:44;0.87;;;0.83;;
10216;SDS011;5152;59.674;16.838;2023-06-01T08:59:12;3.87;;;0.90;;
10216;SDS011;5152;59.674;16.838;2023-06-01T09:01:39;1.70;;;1.13;;
10216;SDS011;5152;59.674;16.838;2023-06-01T09:04:06;2.37;;;0.83;;
10216;SDS011;5152;59.674;16.838;2023-06-01T09:06:34;10.60;;;1.00;;
10216;SDS011;5152;59.674;16.838;2023-06-01T09:09:03;2.57;;;0.87;;
10216;SDS011;5152;59.674;16.838;2023-06-01T09:11:31;2.73;;;0.87;;
10216;SDS011;5152;59.674;16.838;2023-06-01T09:13:58;2.03;;;1.00;;
10216;SDS011;5152;59.674;16.838;2023-06-01T09:16:34;0.90;;;0.90;;
10216;SDS011;5152;59.674;16.838;2023-06-01T09:19:02;2.37;;;1.13;;
10216;SDS011;5152;59.674;16.838;2023-06-01T09:21:28;0.70;;;0.70;;
10216;SDS011;5152;59.674;16.838;2023-06-01T09:23:57;4.33;;;1.10;;
10216;SDS011;5152;59.674;16.838;2023-06-01T09:26:47;2.37;;;1.03;;
10216;SDS011;5152;59.674;16.838;2023-06-01T09:29:14;1.80;;;0.70;;
10216;SDS011;5152;59.674;16.838;2023-06-01T09:31:42;0.80;;;0.70;;
10216;SDS011;5152;59.674;16.838;2023-06-01T09:34:10;3.67;;;0.80;;
10216;SDS011;5152;59.674;16.838;2023-06-01T09:36:40;1.83;;;0.80;;
10216;SDS011;5152;59.674;16.838;2023-06-01T09:39:08;0.90;;;0.60;;
10216;SDS011;5152;59.674;16.838;2023-06-01T09:41:46;2.00;;;1.00;;
10216;SDS011;5152;59.674;16.838;2023-06-01T09:44:14;0.83;;;0.63;;
10216;SDS011;5152;59.674;16.838;2023-06-01T09:46:49;0.93;;;0.70;;
10216;SDS011;5152;59.674;16.838;2023-06-01T09:49:20;2.93;;;0.90;;
10216;SDS011;5152;59.674;16.838;2023-06-01T09:51:49;4.47;;;1.00;;
10216;SDS011;5152;59.674;16.838;2023-06-01T09:54:24;2.53;;;1.00;;
10216;SDS011;5152;59.674;16.838;2023-06-01T09:56:53;1.30;;;1.00;;
10216;SDS011;5152;59.674;16.838;2023-06-01T09:59:20;0.70;;;0.63;;
10216;SDS011;5152;59.674;16.838;2023-06-01T10:01:49;1.47;;;0.80;;
10216;SDS011;5152;59.674;16.838;2023-06-01T10:04:17;1.90;;;1.13;;
10216;SDS011;5152;59.674;16.838;2023-06-01T10:06:49;4.37;;;1.10;;
10216;SDS011;5152;59.674;16.838;2023-06-01T10:09:18;2.60;;;1.00;;
10216;SDS011;5152;59.674;16.838;2023-06-01T10:11:46;2.70;;;1.00;;
10216;SDS011;5152;59.674;16.838;2023-06-01T10:14:15;1.90;;;1.10;;
10216;SDS011;5152;59.674;16.838;2023-06-01T10:16:42;1.10;;;0.60;;
10216;SDS011;5152;59.674;16.838;2023-06-01T10:19:10;1.13;;;0.63;;
10216;SDS011;5152;59.674;16.838;2023-06-01T10:21:37;2.50;;;1.00;;
10216;SDS011;5152;59.674;16.838;2023-06-01T10:24:07;3.73;;;0.90;;
10216;SDS011;5152;59.674;16.838;2023-06-01T10:26:35;4.77;;;1.00;;
10216;SDS011;5152;59.674;16.838;2023-06-01T10:29:20;2.80;;;0.90;;
10216;SDS011;5152;59.674;16.838;2023-06-01T10:31:47;1.17;;;0.73;;
10216;SDS011;5152;59.674;16.838;2023-06-01T10:34:14;1.13;;;0.90;;
10216;SDS011;5152;59.674;16.838;2023-06-01T10:39:40;1.70;;;0.80;;
10216;SDS011;5152;59.674;16.838;2023-06-01T10:45:06;3.13;;;0.93;;
10216;SDS011;5152;59.674;16.838;2023-06-01T10:47:48;2.40;;;0.90;;
10216;SDS011;5152;59.674;16.838;2023-06-01T10:50:15;2.00;;;0.73;;
10216;SDS011;5152;59.674;16.838;2023-06-01T10:52:45;1.23;;;0.93;;
10216;SDS011;5152;59.674;16.838;2023-06-01T10:55:19;1.23;;;0.80;;
10216;SDS011;5152;59.674;16.838;2023-06-01T10:57:47;1.77;;;0.63;;
10216;SDS011;5152;59.674;16.838;2023-06-01T11:00:16;1.50;;;0.90;;
10216;SDS011;5152;59.674;16.838;2023-06-01T11:02:49;0.77;;;0.73;;
10216;SDS011;5152;59.674;16.838;2023-06-01T11:08:08;4.47;;;1.30;;
10216;SDS011;5152;59.674;16.838;2023-06-01T11:10:53;0.93;;;0.63;;
10216;SDS011;5152;59.674;16.838;2023-06-01T11:13:25;4.20;;;0.90;;
10216;SDS011;5152;59.674;16.838;2023-06-01T11:18:58;2.93;;;0.80;;
10216;SDS011;5152;59.674;16.838;2023-06-01T11:21:26;2.17;;;0.97;;
10216;SDS011;5152;59.674;16.838;2023-06-01T11:23:54;1.00;;;0.73;;
10216;SDS011;5152;59.674;16.838;2023-06-01T11:26:22;0.80;;;0.80;;
10216;SDS011;5152;59.674;16.838;2023-06-01T11:28:52;0.97;;;0.70;;
10216;SDS011;5152;59.674;16.838;2023-06-01T11:31:33;0.70;;;0.60;;
10216;SDS011;5152;59.674;16.838;2023-06-01T11:34:02;1.00;;;0.77;;
10216;SDS011;5152;59.674;16.838;2023-06-01T11:36:29;1.03;;;0.70;;
10216;SDS011;5152;59.674;16.838;2023-06-01T11:38:57;2.63;;;0.83;;
10216;SDS011;5152;59.674;16.838;2023-06-01T11:41:24;3.20;;;0.93;;
10216;SDS011;5152;59.674;16.838;2023-06-01T11:43:54;1.00;;;0.70;;
10216;SDS011;5152;59.674;16.838;2023-06-01T11:46:22;0.67;;;0.67;;
10216;SDS011;5152;59.674;16.838;2023-06-01T11:49:00;1.73;;;0.97;;
10216;SDS011;5152;59.674;16.838;2023-06-01T11:51:29;1.53;;;0.83;;
10216;SDS011;5152;59.674;16.838;2023-06-01T11:53:56;1.43;;;0.77;;
10216;SDS011;5152;59.674;16.838;2023-06-01T11:56:29;5.30;;;1.00;;
10216;SDS011;5152;59.674;16.838;2023-06-01T11:58:57;2.30;;;0.80;;
10216;SDS011;5152;59.674;16.838;2023-06-01T12:01:25;2.30;;;0.90;;
10216;SDS011;5152;59.674;16.838;2023-06-01T12:03:52;1.70;;;1.00;;
10216;SDS011;5152;59.674;16.838;2023-06-01T12:06:21;1.53;;;0.83;;
10216;SDS011;5152;59.674;16.838;2023-06-01T12:08:48;0.70;;;0.70;;
10216;SDS011;5152;59.674;16.838;2023-06-01T12:11:18;0.87;;;0.70;;
10216;SDS011;5152;59.674;16.838;2023-06-01T12:13:46;2.37;;;1.03;;
10216;SDS011;5152;59.674;16.838;2023-06-01T12:16:14;1.80;;;1.07;;
10216;SDS011;5152;59.674;16.838;2023-06-01T12:18:43;2.93;;;0.80;;
10216;SDS011;5152;59.674;16.838;2023-06-01T12:21:10;2.17;;;1.17;;
10216;SDS011;5152;59.674;16.838;2023-06-01T12:23:39;1.10;;;1.00;;
10216;SDS011;5152;59.674;16.838;2023-06-01T12:26:06;3.47;;;1.20;;
10216;SDS011;5152;59.674;16.838;2023-06-01T12:31:24;1.10;;;0.50;;
10216;SDS011;5152;59.674;16.838;2023-06-01T12:33:51;1.70;;;0.87;;
10216;SDS011;5152;59.674;16.838;2023-06-01T12:36:28;1.20;;;0.73;;
10216;SDS011;5152;59.674;16.838;2023-06-01T12:38:58;0.77;;;0.60;;
10216;SDS011;5152;59.674;16.838;2023-06-01T12:41:26;1.30;;;1.03;;
10216;SDS011;5152;59.674;16.838;2023-06-01T12:43:52;1.37;;;0.90;;
10216;SDS011;5152;59.674;16.838;2023-06-01T12:46:21;1.53;;;1.00;;
10216;SDS011;5152;59.674;16.838;2023-06-01T12:48:48;1.67;;;0.80;;
10216;SDS011;5152;59.674;16.838;2023-06-01T12:51:16;2.97;;;1.00;;
10216;SDS011;5152;59.674;16.838;2023-06-01T12:53:43;1.50;;;0.83;;
10216;SDS011;5152;59.674;16.838;2023-06-01T12:56:11;4.77;;;1.07;;
10216;SDS011;5152;59.674;16.838;2023-06-01T12:58:39;1.53;;;0.90;;
10216;SDS011;5152;59.674;16.838;2023-06-01T13:01:06;3.20;;;1.00;;
10216;SDS011;5152;59.674;16.838;2023-06-01T13:03:33;1.83;;;0.93;;
10216;SDS011;5152;59.674;16.838;2023-06-01T13:06:00;1.17;;;0.63;;
10216;SDS011;5152;59.674;16.838;2023-06-01T13:08:26;1.13;;;0.80;;
10216;SDS011;5152;59.674;16.838;2023-06-01T13:10:53;1.10;;;0.70;;
10216;SDS011;5152;59.674;16.838;2023-06-01T13:13:22;1.80;;;0.90;;
10216;SDS011;5152;59.674;16.838;2023-06-01T13:15:49;0.97;;;0.70;;
10216;SDS011;5152;59.674;16.838;2023-06-01T13:18:16;10.57;;;1.07;;
10216;SDS011;5152;59.674;16.838;2023-06-01T13:20:43;1.87;;;1.07;;
10216;SDS011;5152;59.674;16.838;2023-06-01T13:23:10;3.13;;;1.20;;
10216;SDS011;5152;59.674;16.838;2023-06-01T13:25:37;0.90;;;0.67;;
10216;SDS011;5152;59.674;16.838;2023-06-01T13:28:04;2.37;;;0.90;;
10216;SDS011;5152;59.674;16.838;2023-06-01T13:30:33;3.90;;;0.80;;
10216;SDS011;5152;59.674;16.838;2023-06-01T13:33:00;2.50;;;0.73;;
10216;SDS011;5152;59.674;16.838;2023-06-01T13:35:27;3.10;;;0.80;;
10216;SDS011;5152;59.674;16.838;2023-06-01T13:37:54;4.57;;;0.83;;
10216;SDS011;5152;59.674;16.838;2023-06-01T13:40:21;3.03;;;0.80;;
10216;SDS011;5152;59.674;16.838;2023-06-01T13:42:49;2.50;;;0.90;;
10216;SDS011;5152;59.674;16.838;2023-06-01T13:45:17;2.80;;;1.00;;
10216;SDS011;5152;59.674;16.838;2023-06-01T13:47:45;1.50;;;0.80;;
10216;SDS011;5152;59.674;16.838;2023-06-01T13:50:12;1.57;;;0.80;;
10216;SDS011;5152;59.674;16.838;2023-06-01T13:52:39;2.87;;;1.17;;
10216;SDS011;5152;59.674;16.838;2023-06-01T13:55:06;3.70;;;0.80;;
10216;SDS011;5152;59.674;16.838;2023-06-01T13:57:34;2.87;;;0.70;;
10216;SDS011;5152;59.674;16.838;2023-06-01T14:00:01;3.27;;;0.73;;
10216;SDS011;5152;59.674;16.838;2023-06-01T14:02:28;1.33;;;0.93;;
10216;SDS011;5152;59.674;16.838;2023-06-01T14:04:56;2.30;;;0.83;;
10216;SDS011;5152;59.674;16.838;2023-06-01T14:07:23;0.97;;;0.80;;
10216;SDS011;5152;59.674;16.838;2023-06-01T14:09:51;3.97;;;0.87;;
10216;SDS011;5152;59.674;16.838;2023-06-01T14:12:18;1.43;;;1.00;;
10216;SDS011;5152;59.674;16.838;2023-06-01T14:14:44;2.57;;;0.90;;
10216;SDS011;5152;59.674;16.838;2023-06-01T14:17:11;1.63;;;1.00;;
10216;SDS011;5152;59.674;16.838;2023-06-01T14:19:38;1.83;;;1.00;;
10216;SDS011;5152;59.674;16.838;2023-06-01T14:22:07;1.77;;;1.00;;
10216;SDS011;5152;59.674;16.838;2023-06-01T14:24:34;2.13;;;1.20;;
10216;SDS011;5152;59.674;16.838;2023-06-01T14:27:01;10.57;;;1.70;;
10216;SDS011;5152;59.674;16.838;2023-06-01T14:29:28;4.33;;;1.30;;
10216;SDS011;5152;59.674;16.838;2023-06-01T14:31:55;2.33;;;0.67;;
10216;SDS011;5152;59.674;16.838;2023-06-01T14:34:21;5.63;;;1.40;;
10216;SDS011;5152;59.674;16.838;2023-06-01T14:36:50;1.10;;;0.97;;
10216;SDS011;5152;59.674;16.838;2023-06-01T14:39:18;2.80;;;0.90;;
10216;SDS011;5152;59.674;16.838;2023-06-01T14:41:45;7.60;;;1.23;;
10216;SDS011;5152;59.674;16.838;2023-06-01T14:44:12;3.23;;;0.80;;
10216;SDS011;5152;59.674;16.838;2023-06-01T14:46:39;5.33;;;1.03;;
10216;SDS011;5152;59.674;16.838;2023-06-01T14:49:07;2.23;;;1.10;;
10216;SDS011;5152;59.674;16.838;2023-06-01T14:51:34;3.30;;;0.90;;
10216;SDS011;5152;59.674;16.838;2023-06-01T14:54:01;4.43;;;0.90;;
10216;SDS011;5152;59.674;16.838;2023-06-01T14:56:30;5.43;;;0.63;;
10216;SDS011;5152;59.674;16.838;2023-06-01T14:58:56;3.47;;;0.90;;
10216;SDS011;5152;59.674;16.838;2023-06-01T15:01:23;0.50;;;0.50;;
10216;SDS011;5152;59.674;16.838;2023-06-01T15:03:50;2.50;;;0.70;;
10216;SDS011;5152;59.674;16.838;2023-06-01T15:06:17;1.23;;;0.80;;
10216;SDS011;5152;59.674;16.838;2023-06-01T15:08:44;2.50;;;0.90;;